createdAt,value
2022-11-17T00:00:42.126Z,84.86
2022-11-17T00:03:15.328Z,84.48
2022-11-17T00:05:42.225Z,84.81
2022-11-17T00:08:08.646Z,86.53
2022-11-17T00:10:35.026Z,87.45
2022-11-17T00:13:20.026Z,87.26
2022-11-17T00:15:46.491Z,87.27
2022-11-17T00:18:31.459Z,87.17
2022-11-17T00:21:16.766Z,88.04
2022-11-17T00:23:49.710Z,88.92
2022-11-17T00:26:18.592Z,89.20
2022-11-17T00:28:45.104Z,88.40
2022-11-17T00:31:33.741Z,88.40
2022-11-17T00:34:06.389Z,88.94
2022-11-17T00:36:33.024Z,89.27
2022-11-17T00:38:59.368Z,89.40
2022-11-17T00:41:25.786Z,88.50
2022-11-17T00:43:52.223Z,89.85
2022-11-17T00:46:18.613Z,90.14
2022-11-17T00:48:44.970Z,90.07
2022-11-17T00:51:11.430Z,90.61
2022-11-17T00:53:38.008Z,89.80
2022-11-17T00:56:04.562Z,90.60
2022-11-17T00:58:31.030Z,91.01
2022-11-17T01:00:57.662Z,91.09
2022-11-17T01:03:24.033Z,90.42
2022-11-17T01:05:51.298Z,90.79
2022-11-17T01:08:17.637Z,91.44
2022-11-17T01:10:44.088Z,91.36
2022-11-17T01:13:10.493Z,91.17
2022-11-17T01:15:36.883Z,91.16
2022-11-17T01:18:03.539Z,90.48
2022-11-17T01:20:29.928Z,90.44
2022-11-17T01:22:56.311Z,90.65
2022-11-17T01:25:22.701Z,91.32
2022-11-17T01:27:49.089Z,91.37
2022-11-17T01:30:17.708Z,91.31
2022-11-17T01:32:44.739Z,92.45
2022-11-17T01:35:11.192Z,91.08
2022-11-17T01:37:37.615Z,90.43
2022-11-17T01:40:04.566Z,90.37
2022-11-17T01:42:31.586Z,90.93
2022-11-17T01:45:01.435Z,90.89
2022-11-17T01:47:36.947Z,90.69
2022-11-17T01:50:30.208Z,89.88
2022-11-17T01:53:00.650Z,89.96
2022-11-17T01:55:40.056Z,89.94
2022-11-17T01:58:11.620Z,90.40
2022-11-17T02:00:38.033Z,90.41
2022-11-17T02:03:07.096Z,89.75
2022-11-17T02:05:58.724Z,89.63
2022-11-17T02:08:28.985Z,89.07
2022-11-17T02:10:55.618Z,89.66
2022-11-17T02:13:23.195Z,88.89
2022-11-17T02:15:49.596Z,88.57
2022-11-17T02:18:17.084Z,89.64
2022-11-17T02:20:51.577Z,90.62
2022-11-17T02:23:20.616Z,90.17
2022-11-17T02:25:59.188Z,90.21
2022-11-17T02:28:36.180Z,90.39
2022-11-17T02:31:33.652Z,90.79
2022-11-17T02:34:23.234Z,90.19
2022-11-17T02:37:02.686Z,91.48
2022-11-17T02:39:40.232Z,91.95
2022-11-17T02:42:17.102Z,91.83
2022-11-17T02:45:05.494Z,92.79
2022-11-17T02:47:34.512Z,91.49
2022-11-17T02:50:06.931Z,91.67
2022-11-17T02:52:33.950Z,91.36
2022-11-17T02:55:02.666Z,91.67
2022-11-17T02:57:40.316Z,93.09
2022-11-17T03:00:20.461Z,92.39
2022-11-17T03:02:53.060Z,92.39
2022-11-17T03:05:37.687Z,92.70
2022-11-17T03:08:13.232Z,92.49
2022-11-17T03:11:06.189Z,92.88
2022-11-17T03:13:52.178Z,92.74
2022-11-17T03:16:38.276Z,92.50
2022-11-17T03:19:10.730Z,93.18
2022-11-17T03:22:08.003Z,92.28
2022-11-17T03:24:39.858Z,91.49
2022-11-17T03:27:11.899Z,91.05
2022-11-17T03:29:43.007Z,89.58
2022-11-17T03:32:11.729Z,89.92
2022-11-17T03:34:44.034Z,89.39
2022-11-17T03:37:13.841Z,89.36
2022-11-17T03:39:44.947Z,88.75
2022-11-17T03:42:23.383Z,89.38
2022-11-17T03:44:55.528Z,88.32
2022-11-17T03:47:26.396Z,89.46
2022-11-17T03:50:05.765Z,88.51
2022-11-17T03:52:34.658Z,88.08
2022-11-17T03:55:02.471Z,87.66
2022-11-17T03:57:41.755Z,88.52
2022-11-17T04:00:14.221Z,87.49
2022-11-17T04:02:43.077Z,88.01
2022-11-17T04:05:10.787Z,87.39
2022-11-17T04:07:42.519Z,87.90
2022-11-17T04:10:11.927Z,88.89
2022-11-17T04:12:58.555Z,87.88
2022-11-17T04:15:44.528Z,87.77
2022-11-17T04:18:10.962Z,87.96
2022-11-17T04:20:37.512Z,87.30
2022-11-17T04:23:08.120Z,87.06
2022-11-17T04:26:05.483Z,87.71
2022-11-17T04:28:39.539Z,87.77
2022-11-17T04:31:14.935Z,87.12
2022-11-17T04:33:47.086Z,87.47
2022-11-17T04:36:17.349Z,88.42
2022-11-17T04:38:48.518Z,88.10
2022-11-17T04:41:35.065Z,88.34
2022-11-17T04:44:02.114Z,89.21
2022-11-17T04:46:31.052Z,89.78
2022-11-17T04:48:58.386Z,89.82
2022-11-17T04:51:25.843Z,90.23
2022-11-17T04:53:52.634Z,91.00
2022-11-17T04:56:20.605Z,90.65
2022-11-17T04:58:47.879Z,91.12
2022-11-17T05:01:16.473Z,91.33
2022-11-17T05:04:12.714Z,91.47
2022-11-17T05:06:42.318Z,92.48
2022-11-17T05:09:11.646Z,92.09
2022-11-17T05:11:56.639Z,91.84
2022-11-17T05:14:24.529Z,92.40
2022-11-17T05:17:11.377Z,92.36
2022-11-17T05:19:40.362Z,92.59
2022-11-17T05:22:28.647Z,93.17
2022-11-17T05:24:55.826Z,92.71
2022-11-17T05:27:23.471Z,92.30
2022-11-17T05:29:49.914Z,93.17
2022-11-17T05:32:16.765Z,93.20
2022-11-17T05:34:43.154Z,93.71
2022-11-17T05:37:09.564Z,94.49
2022-11-17T05:39:36.386Z,94.79
2022-11-17T05:42:03.352Z,94.88
2022-11-17T05:44:29.764Z,94.54
2022-11-17T05:46:56.096Z,94.31
2022-11-17T05:49:22.554Z,94.61
2022-11-17T05:51:52.700Z,94.90
2022-11-17T05:54:19.884Z,94.11
2022-11-17T05:56:49.311Z,94.30
2022-11-17T05:59:27.738Z,93.89
2022-11-17T06:02:04.639Z,93.36
2022-11-17T06:04:32.387Z,93.41
2022-11-17T06:07:00.446Z,92.87
2022-11-17T06:09:38.424Z,92.55
2022-11-17T06:12:06.404Z,91.98
2022-11-17T06:14:34.329Z,92.01
2022-11-17T06:17:05.294Z,91.80
2022-11-17T06:19:36.954Z,92.01
2022-11-17T06:22:12.275Z,92.10
2022-11-17T06:24:45.196Z,92.24
2022-11-17T06:27:17.517Z,92.43
2022-11-17T06:29:48.590Z,92.03
2022-11-17T06:32:17.626Z,91.94
2022-11-17T06:34:51.945Z,91.55
2022-11-17T06:37:22.099Z,91.09
2022-11-17T06:39:48.501Z,90.92
2022-11-17T06:42:14.831Z,90.30
2022-11-17T06:44:41.200Z,90.06
2022-11-17T06:47:07.715Z,89.30
2022-11-17T06:49:34.194Z,89.65
2022-11-17T06:52:00.699Z,88.61
2022-11-17T06:54:27.168Z,87.33
2022-11-17T06:56:55.248Z,88.23
2022-11-17T06:59:21.708Z,88.41
2022-11-17T07:01:51.461Z,88.70
2022-11-17T07:04:17.998Z,88.08
2022-11-17T07:06:44.454Z,87.42
2022-11-17T07:09:10.759Z,88.55
2022-11-17T07:11:37.491Z,89.85
2022-11-17T07:14:03.994Z,89.65
2022-11-17T07:16:32.404Z,87.17
2022-11-17T07:18:59.279Z,89.48
2022-11-17T07:21:26.125Z,88.00
2022-11-17T07:23:52.494Z,88.44
2022-11-17T07:26:19.378Z,88.96
2022-11-17T07:28:45.770Z,88.68
2022-11-17T07:31:12.461Z,86.64
2022-11-17T07:33:39.048Z,87.48
2022-11-17T07:36:11.033Z,88.11
2022-11-17T07:38:39.672Z,88.12
2022-11-17T07:41:07.961Z,87.56
2022-11-17T07:43:35.879Z,91.05
2022-11-17T07:46:08.974Z,89.72
2022-11-17T07:48:35.853Z,90.08
2022-11-17T07:51:04.359Z,92.60
2022-11-17T07:53:32.407Z,90.89
2022-11-17T07:56:07.510Z,91.76
2022-11-17T07:58:34.549Z,91.99
2022-11-17T08:01:19.657Z,92.67
2022-11-17T08:03:46.365Z,92.04
2022-11-17T08:06:13.139Z,94.06
2022-11-17T08:08:52.989Z,93.29
2022-11-17T08:11:34.230Z,93.02
2022-11-17T08:14:01.202Z,93.45
2022-11-17T08:16:30.624Z,93.50
2022-11-17T08:18:57.762Z,93.34
2022-11-17T08:21:24.559Z,93.54
2022-11-17T08:23:52.872Z,92.28
2022-11-17T08:26:20.771Z,93.80
2022-11-17T08:28:48.297Z,93.10
2022-11-17T08:31:16.623Z,92.90
2022-11-17T08:33:43.721Z,92.52
2022-11-17T08:36:10.162Z,91.18
2022-11-17T08:38:37.358Z,91.06
2022-11-17T08:41:11.586Z,90.01
2022-11-17T08:43:38.103Z,89.89
2022-11-17T08:46:04.706Z,88.93
2022-11-17T08:48:31.800Z,88.57
2022-11-17T08:50:58.905Z,87.76
2022-11-17T08:53:46.430Z,87.57
2022-11-17T08:56:13.106Z,86.76
2022-11-17T08:58:43.829Z,86.57
2022-11-17T09:01:12.165Z,87.15
2022-11-17T09:03:38.701Z,87.69
2022-11-17T09:06:05.891Z,86.78
2022-11-17T09:08:48.123Z,87.12
2022-11-17T09:11:22.434Z,86.73
2022-11-17T09:13:48.964Z,86.45
2022-11-17T09:16:17.089Z,85.48
2022-11-17T09:18:47.788Z,83.74
2022-11-17T09:21:15.694Z,84.01
2022-11-17T09:23:45.073Z,83.10
2022-11-17T09:26:16.340Z,85.26
2022-11-17T09:28:44.306Z,83.94
2022-11-17T09:31:16.916Z,81.88
2022-11-17T09:33:43.886Z,81.33
2022-11-17T09:36:11.938Z,82.37
2022-11-17T09:38:39.637Z,81.45
2022-11-17T09:41:19.036Z,79.41
2022-11-17T09:44:03.543Z,78.27
2022-11-17T09:46:50.916Z,78.63
2022-11-17T09:49:30.276Z,77.33
2022-11-17T09:52:02.717Z,77.41
2022-11-17T09:54:46.561Z,76.45
2022-11-17T09:57:21.379Z,75.94
2022-11-17T10:00:02.308Z,75.54
2022-11-17T10:02:29.335Z,74.73
2022-11-17T10:04:56.213Z,73.67
2022-11-17T10:07:23.184Z,73.10
2022-11-17T10:09:54.031Z,73.77
2022-11-17T10:12:26.415Z,71.83
2022-11-17T10:14:54.318Z,70.61
2022-11-17T10:17:20.734Z,71.11
2022-11-17T10:19:47.238Z,70.82
2022-11-17T10:22:36.320Z,69.74
2022-11-17T10:25:05.464Z,70.30
2022-11-17T10:27:34.242Z,70.93
2022-11-17T10:30:19.060Z,71.11
2022-11-17T10:32:54.271Z,70.70
2022-11-17T10:35:23.953Z,71.51
2022-11-17T10:37:57.987Z,71.24
2022-11-17T10:40:29.603Z,70.34
2022-11-17T10:43:14.310Z,70.05
2022-11-17T10:45:44.937Z,71.08
2022-11-17T10:48:26.521Z,68.47
2022-11-17T10:51:13.275Z,68.19
2022-11-17T10:53:46.566Z,68.29
2022-11-17T10:56:22.822Z,68.50
2022-11-17T10:58:55.533Z,68.55
2022-11-17T11:01:29.611Z,68.71
2022-11-17T11:03:56.181Z,69.37
2022-11-17T11:06:26.701Z,67.76
2022-11-17T11:09:09.951Z,67.64
2022-11-17T11:11:54.118Z,68.05
2022-11-17T11:14:54.536Z,67.62
2022-11-17T11:17:20.964Z,67.15
2022-11-17T11:19:54.374Z,66.92
2022-11-17T11:23:03.379Z,66.47
2022-11-17T11:25:40.873Z,65.64
2022-11-17T11:28:22.524Z,65.88
2022-11-17T11:31:10.867Z,65.73
2022-11-17T11:33:42.645Z,65.28
2022-11-17T11:36:22.743Z,64.80
2022-11-17T11:38:56.469Z,65.62
2022-11-17T11:41:56.269Z,64.90
2022-11-17T11:44:22.568Z,65.70
2022-11-17T11:47:33.459Z,65.56
2022-11-17T11:50:17.913Z,65.52
2022-11-17T11:53:13.267Z,65.84
2022-11-17T11:55:41.879Z,66.08
2022-11-17T11:58:24.746Z,65.85
2022-11-17T12:01:05.790Z,66.42
2022-11-17T12:03:56.517Z,65.86
2022-11-17T12:06:41.250Z,64.60
2022-11-17T12:09:23.715Z,65.49
2022-11-17T12:12:01.760Z,64.67
2022-11-17T12:14:29.637Z,65.06
2022-11-17T12:17:28.720Z,65.02
2022-11-17T12:19:58.786Z,64.02
2022-11-17T12:22:34.193Z,64.40
2022-11-17T12:25:31.784Z,63.17
2022-11-17T12:27:58.514Z,63.15
2022-11-17T12:30:33.597Z,63.57
2022-11-17T12:33:02.157Z,62.81
2022-11-17T12:35:30.552Z,62.17
2022-11-17T12:38:15.347Z,62.63
2022-11-17T12:40:51.412Z,62.60
2022-11-17T12:43:25.095Z,62.80
2022-11-17T12:46:04.074Z,62.35
2022-11-17T12:48:36.051Z,62.04
2022-11-17T12:51:13.549Z,61.78
2022-11-17T12:54:20.972Z,62.13
2022-11-17T12:56:54.913Z,62.90
2022-11-17T13:00:02.579Z,62.89
2022-11-17T13:02:47.679Z,61.88
2022-11-17T13:05:22.226Z,61.59
2022-11-17T13:07:48.960Z,62.69
2022-11-17T13:10:29.316Z,61.34
2022-11-17T13:13:23.573Z,61.67
2022-11-17T13:16:31.201Z,61.33
2022-11-17T13:23:25.967Z,61.34
2022-11-17T13:26:44.735Z,61.12
2022-11-17T13:30:08.557Z,61.71
2022-11-17T13:33:40.429Z,61.92
2022-11-17T13:37:37.730Z,61.55
2022-11-17T13:48:35.960Z,62.41
2022-11-17T13:54:49.731Z,61.97
2022-11-17T13:57:25.609Z,62.06
2022-11-17T14:00:01.907Z,61.49
2022-11-17T14:02:29.665Z,60.88
2022-11-17T14:05:19.552Z,61.88
2022-11-17T14:07:46.856Z,61.67
2022-11-17T14:10:27.852Z,61.33
2022-11-17T14:13:21.579Z,60.36
2022-11-17T14:15:55.554Z,61.10
2022-11-17T14:18:36.237Z,60.66
2022-11-17T14:21:08.381Z,60.87
2022-11-17T14:23:35.468Z,60.43
2022-11-17T14:26:01.833Z,60.51
2022-11-17T14:28:28.194Z,59.86
2022-11-17T14:30:56.309Z,60.91
2022-11-17T14:33:22.877Z,60.39
2022-11-17T14:35:59.622Z,60.32
2022-11-17T14:38:26.091Z,60.75
2022-11-17T14:40:53.654Z,61.06
2022-11-17T14:43:21.321Z,60.54
2022-11-17T14:45:50.890Z,61.11
2022-11-17T14:48:19.539Z,60.73
2022-11-17T14:50:47.583Z,60.71
2022-11-17T14:53:16.629Z,61.15
2022-11-17T14:55:43.071Z,60.70
2022-11-17T14:58:10.218Z,60.26
2022-11-17T15:00:36.860Z,61.12
2022-11-17T15:03:03.367Z,60.91
2022-11-17T15:05:29.849Z,61.65
2022-11-17T15:07:56.624Z,61.89
2022-11-17T15:10:26.075Z,61.70
2022-11-17T15:12:54.856Z,61.48
2022-11-17T15:15:21.267Z,61.33
2022-11-17T15:17:47.616Z,61.60
2022-11-17T15:20:14.050Z,60.94
2022-11-17T15:22:40.398Z,61.39
2022-11-17T15:25:08.002Z,61.28
2022-11-17T15:27:34.617Z,61.18
2022-11-17T15:30:01.071Z,61.70
2022-11-17T15:32:27.472Z,61.82
2022-11-17T15:34:53.853Z,62.11
2022-11-17T15:37:20.301Z,62.16
2022-11-17T15:39:46.638Z,61.84
2022-11-17T15:42:12.980Z,62.22
2022-11-17T15:44:39.305Z,61.82
2022-11-17T15:47:06.100Z,62.21
2022-11-17T15:49:32.410Z,62.58
2022-11-17T15:51:58.747Z,62.30
2022-11-17T15:54:25.155Z,62.21
2022-11-17T15:56:52.082Z,62.34
2022-11-17T15:59:19.086Z,62.13
2022-11-17T16:01:45.923Z,61.90
2022-11-17T16:04:15.618Z,61.56
2022-11-17T16:06:43.857Z,61.46
2022-11-17T16:09:11.907Z,61.97
2022-11-17T16:11:38.790Z,61.91
2022-11-17T16:14:05.650Z,61.63
2022-11-17T16:16:35.403Z,62.12
2022-11-17T16:19:02.410Z,62.52
2022-11-17T16:21:29.559Z,62.87
2022-11-17T16:23:57.760Z,63.30
2022-11-17T16:26:26.128Z,63.62
2022-11-17T16:28:59.525Z,63.82
2022-11-17T16:31:28.459Z,64.20
2022-11-17T16:33:59.838Z,64.28
2022-11-17T16:36:34.320Z,64.24
2022-11-17T16:39:05.861Z,64.62
2022-11-17T16:41:38.235Z,64.58
2022-11-17T16:44:13.572Z,65.34
2022-11-17T16:46:44.879Z,65.66
2022-11-17T16:49:13.603Z,65.32
2022-11-17T16:51:40.989Z,65.21
2022-11-17T16:54:11.395Z,65.10
2022-11-17T16:56:37.999Z,65.27
2022-11-17T16:59:04.476Z,65.35
2022-11-17T17:01:33.032Z,65.55
2022-11-17T17:04:02.038Z,65.57
2022-11-17T17:06:29.311Z,65.32
2022-11-17T17:09:05.188Z,65.38
2022-11-17T17:11:33.519Z,65.58
2022-11-17T17:14:03.066Z,65.69
2022-11-17T17:16:31.369Z,65.97
2022-11-17T17:19:01.625Z,66.37
2022-11-17T17:21:29.112Z,65.98
2022-11-17T17:23:56.051Z,66.27
2022-11-17T17:26:24.568Z,66.20
2022-11-17T17:28:53.933Z,66.25
2022-11-17T17:31:22.380Z,66.04
2022-11-17T17:33:50.555Z,65.86
2022-11-17T17:36:22.387Z,66.14
2022-11-17T17:38:55.047Z,66.24
2022-11-17T17:41:24.997Z,66.36
2022-11-17T17:44:08.078Z,65.93
2022-11-17T17:46:38.592Z,65.86
2022-11-17T17:49:06.168Z,65.76
2022-11-17T17:51:44.620Z,66.17
2022-11-17T17:54:19.804Z,65.89
2022-11-17T17:56:46.854Z,65.89
2022-11-17T17:59:14.367Z,65.95
2022-11-17T18:01:42.092Z,65.92
2022-11-17T18:04:12.663Z,65.77
2022-11-17T18:06:45.938Z,66.08
2022-11-17T18:09:14.473Z,66.16
2022-11-17T18:11:50.977Z,66.08
2022-11-17T18:14:21.049Z,66.52
2022-11-17T18:16:47.893Z,66.52
2022-11-17T18:19:15.781Z,66.65
2022-11-17T18:21:43.194Z,66.41
2022-11-17T18:24:11.462Z,66.64
2022-11-17T18:26:40.848Z,66.84
2022-11-17T18:29:11.953Z,67.01
2022-11-17T18:31:38.401Z,67.26
2022-11-17T18:34:14.529Z,67.58
2022-11-17T18:36:40.992Z,67.83
2022-11-17T18:39:07.562Z,67.65
2022-11-17T18:41:35.748Z,67.72
2022-11-17T18:44:02.283Z,67.57
2022-11-17T18:46:31.057Z,68.12
2022-11-17T18:48:58.125Z,67.88
2022-11-17T18:51:27.554Z,68.12
2022-11-17T18:53:55.336Z,68.29
2022-11-17T18:56:23.926Z,67.72
2022-11-17T18:58:51.048Z,68.08
2022-11-17T19:01:19.984Z,68.26
2022-11-17T19:03:49.238Z,68.51
2022-11-17T19:06:17.493Z,68.37
2022-11-17T19:08:45.241Z,68.44
2022-11-17T19:11:12.879Z,68.61
2022-11-17T19:13:49.183Z,68.52
2022-11-17T19:16:18.041Z,68.31
2022-11-17T19:18:46.692Z,68.94
2022-11-17T19:21:15.766Z,68.37
2022-11-17T19:23:49.627Z,68.38
2022-11-17T19:26:20.727Z,68.45
2022-11-17T19:28:47.777Z,68.59
2022-11-17T19:31:17.196Z,68.51
2022-11-17T19:33:45.216Z,69.23
2022-11-17T19:36:18.565Z,69.17
2022-11-17T19:38:48.249Z,69.42
2022-11-17T19:41:17.763Z,69.13
2022-11-17T19:43:45.623Z,68.99
2022-11-17T19:46:16.842Z,69.19
2022-11-17T19:48:44.377Z,69.37
2022-11-17T19:51:13.779Z,69.30
2022-11-17T19:53:40.624Z,69.42
2022-11-17T19:56:07.708Z,69.21
2022-11-17T19:58:34.147Z,69.18
2022-11-17T20:01:12.141Z,69.11
2022-11-17T20:03:39.656Z,69.13
2022-11-17T20:06:07.623Z,69.65
2022-11-17T20:08:34.061Z,69.77
2022-11-17T20:11:17.603Z,69.68
2022-11-17T20:13:44.742Z,69.81
2022-11-17T20:16:22.333Z,69.75
2022-11-17T20:18:51.250Z,69.91
2022-11-17T20:21:18.205Z,69.85
2022-11-17T20:23:45.355Z,69.81
2022-11-17T20:26:14.799Z,70.06
2022-11-17T20:28:42.086Z,69.57
2022-11-17T20:31:10.745Z,70.03
2022-11-17T20:33:38.953Z,69.93
2022-11-17T20:36:06.617Z,70.13
2022-11-17T20:38:33.323Z,70.08
2022-11-17T20:41:00.761Z,70.18
2022-11-17T20:43:28.036Z,70.38
2022-11-17T20:45:55.489Z,70.34
2022-11-17T20:48:23.249Z,70.21
2022-11-17T20:51:06.179Z,70.43
2022-11-17T20:53:33.116Z,70.18
2022-11-17T20:56:01.378Z,70.50
2022-11-17T20:58:28.796Z,70.88
2022-11-17T21:00:56.286Z,70.80
2022-11-17T21:03:24.121Z,70.68
2022-11-17T21:05:59.332Z,70.96
2022-11-17T21:08:27.682Z,71.22
2022-11-17T21:11:00.501Z,71.55
2022-11-17T21:13:28.559Z,71.22
2022-11-17T21:16:14.653Z,71.90
2022-11-17T21:18:48.157Z,71.52
2022-11-17T21:21:15.695Z,71.10
2022-11-17T21:23:42.808Z,71.18
2022-11-17T21:26:14.581Z,70.91
2022-11-17T21:28:41.388Z,70.92
2022-11-17T21:31:11.244Z,70.63
2022-11-17T21:33:38.477Z,70.78
2022-11-17T21:36:15.602Z,71.20
2022-11-17T21:38:42.747Z,71.60
2022-11-17T21:41:17.952Z,71.37
2022-11-17T21:43:47.380Z,71.71
2022-11-17T21:46:16.376Z,72.05
2022-11-17T21:48:43.662Z,71.88
2022-11-17T21:51:24.111Z,72.27
2022-11-17T21:53:55.659Z,72.21
2022-11-17T21:56:25.480Z,72.24
2022-11-17T21:58:59.982Z,72.27
2022-11-17T22:01:27.079Z,72.37
2022-11-17T22:03:53.516Z,72.25
2022-11-17T22:06:22.798Z,71.91
2022-11-17T22:08:50.297Z,71.90
2022-11-17T22:11:35.099Z,72.02
2022-11-17T22:14:16.199Z,71.95
2022-11-17T22:16:44.700Z,72.03
2022-11-17T22:19:12.021Z,72.16
2022-11-17T22:21:39.399Z,72.04
2022-11-17T22:24:08.207Z,71.97
2022-11-17T22:26:38.334Z,71.80
2022-11-17T22:29:06.462Z,71.61
2022-11-17T22:31:32.800Z,71.68
2022-11-17T22:33:59.270Z,71.33
2022-11-17T22:36:25.623Z,71.95
2022-11-17T22:38:52.352Z,71.63
2022-11-17T22:41:20.709Z,71.87
2022-11-17T22:43:55.431Z,71.35
2022-11-17T22:46:24.499Z,71.64
2022-11-17T22:48:51.246Z,71.33
2022-11-17T22:51:38.595Z,71.42
2022-11-17T22:54:06.513Z,71.43
2022-11-17T22:56:33.508Z,71.32
2022-11-17T22:59:00.217Z,71.37
2022-11-17T23:01:27.020Z,71.45
2022-11-17T23:03:53.509Z,71.26
2022-11-17T23:06:20.139Z,71.88
2022-11-17T23:08:46.592Z,72.11
2022-11-17T23:11:35.930Z,72.29
2022-11-17T23:13:59.637Z,72.73
2022-11-17T23:16:26.194Z,73.12
2022-11-17T23:18:56.534Z,73.22
2022-11-17T23:21:23.268Z,73.65
2022-11-17T23:23:49.822Z,73.33
2022-11-17T23:26:16.528Z,73.73
2022-11-17T23:28:43.353Z,73.49
2022-11-17T23:31:12.234Z,73.91
2022-11-17T23:33:41.185Z,73.77
2022-11-17T23:36:13.362Z,73.88
2022-11-17T23:38:40.092Z,73.46
2022-11-17T23:41:08.473Z,73.30
2022-11-17T23:43:34.950Z,72.40
2022-11-17T23:46:06.524Z,72.43
2022-11-17T23:48:32.869Z,72.47
2022-11-17T23:51:03.817Z,72.47
2022-11-17T23:53:30.146Z,72.19
2022-11-17T23:55:57.453Z,72.74
2022-11-17T23:58:24.300Z,72.77
